Terminal Aerodrome Forecast
Issued by NWS

Home | Current Version | Previous Version | Text Only | Print | Product List | Glossary On
Versions: 1 2 3 4 5 6 7 8 9 10 11 12 13 14 15 16 17 18 19 20 21 22
000
FTUS41 KPBZ 271730
TAFAGC
TAF
KAGC 271730Z 2718/2818 21012KT P6SM BKN035
     FM280300 21006KT P6SM VCSH OVC040
     FM280800 26006KT P6SM BKN025
     FM281400 32006KT P6SM BKN080=

USA.gov is the U.S. government's official web portal to all federal, state and local government web resources and services.